createdAt,value
2022-09-29T00:00:36.973Z,0
2022-09-29T00:01:37.240Z,0
2022-09-29T00:02:37.408Z,0
2022-09-29T00:03:37.363Z,0
2022-09-29T00:04:36.979Z,0
2022-09-29T00:05:36.941Z,0
2022-09-29T00:06:36.960Z,0
2022-09-29T00:07:36.972Z,0
2022-09-29T00:08:36.952Z,0
2022-09-29T00:09:39.719Z,0
2022-09-29T00:10:36.951Z,0
2022-09-29T00:11:36.955Z,0
2022-09-29T00:12:36.971Z,0
2022-09-29T00:13:36.954Z,0
2022-09-29T00:14:39.755Z,0
2022-09-29T00:15:39.699Z,0
2022-09-29T00:16:37.553Z,0
2022-09-29T00:17:37.028Z,0
2022-09-29T00:18:37.006Z,0
2022-09-29T00:19:37.019Z,0
2022-09-29T00:20:37.011Z,0
2022-09-29T00:21:39.950Z,0
2022-09-29T00:22:37.003Z,0
2022-09-29T00:23:36.998Z,0
2022-09-29T00:24:37.982Z,0
2022-09-29T00:25:39.947Z,0
2022-09-29T00:26:37.004Z,0
2022-09-29T00:27:37.027Z,0
2022-09-29T00:28:36.994Z,0
2022-09-29T00:29:37.009Z,0
2022-09-29T00:30:37.040Z,0
2022-09-29T00:31:37.495Z,0
2022-09-29T00:32:37.018Z,0
2022-09-29T00:33:36.986Z,0
2022-09-29T00:34:37.017Z,0
2022-09-29T00:35:37.026Z,0
2022-09-29T00:36:40.310Z,0
2022-09-29T00:37:37.071Z,0
2022-09-29T00:38:36.985Z,0
2022-09-29T00:39:37.014Z,0
2022-09-29T00:40:40.016Z,0
2022-09-29T00:41:40.016Z,0
2022-09-29T00:42:37.035Z,0
2022-09-29T00:43:37.014Z,0
2022-09-29T00:44:37.003Z,0
2022-09-29T00:45:37.320Z,0
2022-09-29T00:46:37.056Z,0
2022-09-29T00:47:40.063Z,0
2022-09-29T00:48:37.012Z,0
2022-09-29T00:49:37.016Z,0
2022-09-29T00:50:37.041Z,0
2022-09-29T00:51:37.041Z,0
2022-09-29T00:52:39.867Z,0
2022-09-29T00:53:37.047Z,0
2022-09-29T00:54:37.014Z,0
2022-09-29T00:55:37.011Z,0
2022-09-29T00:56:37.017Z,0
2022-09-29T00:57:40.052Z,0
2022-09-29T00:58:37.046Z,0
2022-09-29T00:59:37.023Z,0
2022-09-29T01:00:37.449Z,0
2022-09-29T01:01:37.124Z,0
2022-09-29T01:02:37.267Z,0
2022-09-29T01:03:40.086Z,0
2022-09-29T01:04:37.012Z,0
2022-09-29T01:05:37.029Z,0
2022-09-29T01:06:37.063Z,0
2022-09-29T01:07:37.071Z,0
2022-09-29T01:08:38.902Z,0
2022-09-29T01:09:37.038Z,0
2022-09-29T01:10:37.036Z,0
2022-09-29T01:11:37.066Z,0
2022-09-29T01:12:37.048Z,0
2022-09-29T01:13:37.079Z,0
2022-09-29T01:14:40.816Z,0
2022-09-29T01:15:37.120Z,0
2022-09-29T01:16:37.499Z,0
2022-09-29T01:17:37.057Z,0
2022-09-29T01:18:37.123Z,0
2022-09-29T01:19:40.150Z,0
2022-09-29T01:20:37.047Z,0
2022-09-29T01:21:37.051Z,0
2022-09-29T01:22:37.088Z,0
2022-09-29T01:23:40.120Z,0
2022-09-29T01:24:37.091Z,0
2022-09-29T01:25:40.083Z,0
2022-09-29T01:26:37.064Z,0
2022-09-29T01:27:37.070Z,0
2022-09-29T01:28:37.102Z,0
2022-09-29T01:29:37.074Z,0
2022-09-29T01:30:40.115Z,0
2022-09-29T01:31:37.425Z,0
2022-09-29T01:32:37.077Z,0
2022-09-29T01:33:37.087Z,0
2022-09-29T01:34:40.167Z,0
2022-09-29T01:35:37.076Z,0
2022-09-29T01:36:40.151Z,0
2022-09-29T01:37:37.168Z,0
2022-09-29T01:38:37.139Z,0
2022-09-29T01:39:37.539Z,0
2022-09-29T01:40:37.533Z,0
2022-09-29T01:41:40.221Z,0
2022-09-29T01:42:37.093Z,0
2022-09-29T01:43:37.112Z,0
2022-09-29T01:44:37.107Z,0
2022-09-29T01:45:37.454Z,0
2022-09-29T01:46:37.096Z,0
2022-09-29T01:47:39.939Z,0
2022-09-29T01:48:37.120Z,0
2022-09-29T01:49:38.217Z,0
2022-09-29T01:50:37.150Z,0
2022-09-29T01:51:37.098Z,0
2022-09-29T01:52:39.959Z,0
2022-09-29T01:53:37.157Z,0
2022-09-29T01:54:37.184Z,0
2022-09-29T01:55:40.175Z,0
2022-09-29T01:56:37.182Z,0
2022-09-29T01:57:37.131Z,0
2022-09-29T01:58:39.896Z,0
2022-09-29T01:59:37.127Z,0
2022-09-29T02:00:37.392Z,0
2022-09-29T02:01:37.244Z,0
2022-09-29T02:02:37.346Z,0
2022-09-29T02:03:39.932Z,0
2022-09-29T02:04:37.122Z,0
2022-09-29T02:05:37.124Z,0
2022-09-29T02:06:37.176Z,0
2022-09-29T02:07:37.130Z,0
2022-09-29T02:08:37.329Z,0
2022-09-29T02:09:40.006Z,0
2022-09-29T02:10:37.181Z,0
2022-09-29T02:11:37.158Z,0
2022-09-29T02:12:37.175Z,0
2022-09-29T02:13:37.187Z,0
2022-09-29T02:14:39.905Z,0
2022-09-29T02:15:37.158Z,0
2022-09-29T02:16:37.640Z,0
2022-09-29T02:17:37.150Z,0
2022-09-29T02:18:37.210Z,0
2022-09-29T02:19:40.218Z,0
2022-09-29T02:20:40.233Z,0
2022-09-29T02:21:37.035Z,0
2022-09-29T02:22:37.191Z,0
2022-09-29T02:23:39.923Z,0
2022-09-29T02:24:37.149Z,0
2022-09-29T02:25:46.062Z,0
2022-09-29T02:26:37.158Z,0
2022-09-29T02:27:37.243Z,0
2022-09-29T02:28:37.215Z,0
2022-09-29T02:29:37.193Z,0
2022-09-29T02:30:37.174Z,0
2022-09-29T02:31:37.764Z,0
2022-09-29T02:32:37.152Z,0
2022-09-29T02:33:37.452Z,0
2022-09-29T02:34:37.170Z,0
2022-09-29T02:35:37.181Z,0
2022-09-29T02:36:40.210Z,0
2022-09-29T02:37:37.225Z,0
2022-09-29T02:38:37.254Z,0
2022-09-29T02:39:37.200Z,0
2022-09-29T02:40:37.522Z,0
2022-09-29T02:41:37.354Z,0
2022-09-29T02:42:37.174Z,0
2022-09-29T02:43:37.238Z,0
2022-09-29T02:44:37.371Z,0
2022-09-29T02:45:37.716Z,0
2022-09-29T02:46:37.198Z,0
2022-09-29T02:47:40.319Z,0
2022-09-29T02:48:37.256Z,0
2022-09-29T02:49:37.467Z,0
2022-09-29T02:50:37.206Z,0
2022-09-29T02:51:37.227Z,0
2022-09-29T02:52:39.982Z,0
2022-09-29T02:53:38.250Z,0
2022-09-29T02:54:37.238Z,0
2022-09-29T02:55:37.235Z,0
2022-09-29T02:56:37.186Z,0
2022-09-29T02:57:37.231Z,0
2022-09-29T02:58:37.210Z,0
2022-09-29T02:59:37.223Z,0
2022-09-29T03:00:37.560Z,0
2022-09-29T03:01:37.206Z,0
2022-09-29T03:02:37.226Z,0
2022-09-29T03:03:40.664Z,0
2022-09-29T03:04:37.209Z,0
2022-09-29T03:05:37.210Z,0
2022-09-29T03:06:37.213Z,0
2022-09-29T03:07:37.292Z,0
2022-09-29T03:08:40.081Z,0
2022-09-29T03:09:37.210Z,0
2022-09-29T03:10:39.556Z,0
2022-09-29T03:11:37.440Z,0
2022-09-29T03:12:37.246Z,0
2022-09-29T03:13:37.267Z,0
2022-09-29T03:14:40.098Z,0
2022-09-29T03:15:37.247Z,0
2022-09-29T03:16:37.693Z,0
2022-09-29T03:17:37.226Z,0
2022-09-29T03:18:40.663Z,0
2022-09-29T03:19:40.277Z,0
2022-09-29T03:20:37.252Z,0
2022-09-29T03:21:37.245Z,0
2022-09-29T03:22:37.255Z,0
2022-09-29T03:23:37.275Z,0
2022-09-29T03:24:40.072Z,0
2022-09-29T03:25:37.242Z,0
2022-09-29T03:26:37.321Z,0
2022-09-29T03:27:37.264Z,0
2022-09-29T03:28:37.289Z,0
2022-09-29T03:29:37.271Z,0
2022-09-29T03:30:40.015Z,0
2022-09-29T03:31:37.822Z,0
2022-09-29T03:33:37.259Z,0
2022-09-29T03:34:37.306Z,0
2022-09-29T03:35:45.031Z,0
2022-09-29T03:36:37.274Z,0
2022-09-29T03:37:37.261Z,0
2022-09-29T03:38:37.292Z,0
2022-09-29T03:39:37.266Z,0
2022-09-29T03:40:37.942Z,0
2022-09-29T03:41:40.426Z,0
2022-09-29T03:42:37.293Z,0
2022-09-29T03:43:37.451Z,0
2022-09-29T03:44:37.312Z,0
2022-09-29T03:45:37.635Z,0
2022-09-29T03:46:40.055Z,0
2022-09-29T03:47:37.275Z,0
2022-09-29T03:48:37.558Z,0
2022-09-29T03:49:37.277Z,0
2022-09-29T03:50:37.278Z,0
2022-09-29T03:51:37.297Z,0
2022-09-29T03:52:40.157Z,0
2022-09-29T03:53:40.294Z,0
2022-09-29T03:54:37.755Z,0
2022-09-29T03:55:37.296Z,0
2022-09-29T03:56:37.284Z,0
2022-09-29T03:57:40.471Z,0
2022-09-29T03:58:37.306Z,0
2022-09-29T03:59:39.188Z,0
2022-09-29T04:00:37.497Z,0
2022-09-29T04:01:37.351Z,0
2022-09-29T04:02:37.479Z,0
2022-09-29T04:03:40.344Z,0
2022-09-29T04:04:37.319Z,0
2022-09-29T04:05:37.299Z,0
2022-09-29T04:06:37.304Z,0
2022-09-29T04:07:39.765Z,0
2022-09-29T04:08:40.353Z,0
2022-09-29T04:09:37.304Z,0
2022-09-29T04:10:37.306Z,0
2022-09-29T04:11:37.335Z,0
2022-09-29T04:12:37.316Z,0
2022-09-29T04:13:37.395Z,0
2022-09-29T04:14:40.392Z,0
2022-09-29T04:15:37.326Z,0
2022-09-29T04:16:38.018Z,0
2022-09-29T04:17:37.349Z,0
2022-09-29T04:18:42.404Z,0
2022-09-29T04:19:40.370Z,0
2022-09-29T04:20:37.328Z,0
2022-09-29T04:21:37.397Z,0
2022-09-29T04:22:37.329Z,0
2022-09-29T04:23:37.452Z,0
2022-09-29T04:24:37.371Z,0
2022-09-29T04:25:40.423Z,0
2022-09-29T04:26:37.445Z,0
2022-09-29T04:27:37.345Z,0
2022-09-29T04:28:40.357Z,0
2022-09-29T04:29:37.344Z,0
2022-09-29T04:30:40.566Z,0
2022-09-29T04:31:37.874Z,0
2022-09-29T04:32:37.328Z,0
2022-09-29T04:33:37.372Z,0
2022-09-29T04:34:37.498Z,0
2022-09-29T04:35:42.860Z,0
2022-09-29T04:36:40.154Z,0
2022-09-29T04:37:37.342Z,0
2022-09-29T04:38:37.375Z,0
2022-09-29T04:39:37.380Z,0
2022-09-29T04:40:40.861Z,0
2022-09-29T04:41:40.451Z,0
2022-09-29T04:42:40.266Z,0
2022-09-29T04:43:40.700Z,0
2022-09-29T04:44:40.295Z,0
2022-09-29T04:45:37.686Z,0
2022-09-29T04:46:37.347Z,0
2022-09-29T04:47:40.107Z,0
2022-09-29T04:48:43.012Z,0
2022-09-29T04:49:37.356Z,0
2022-09-29T04:50:37.384Z,0
2022-09-29T04:51:37.386Z,0
2022-09-29T04:52:40.379Z,0
2022-09-29T04:53:37.394Z,0
2022-09-29T04:54:42.846Z,0
2022-09-29T04:55:37.377Z,0
2022-09-29T04:56:37.370Z,0
2022-09-29T04:57:37.399Z,0
2022-09-29T04:58:37.394Z,0
2022-09-29T04:59:37.378Z,0
2022-09-29T05:00:37.762Z,0
2022-09-29T05:01:37.377Z,0
2022-09-29T05:02:37.763Z,0
2022-09-29T05:03:40.423Z,0
2022-09-29T05:04:37.424Z,0
2022-09-29T05:05:37.389Z,0
2022-09-29T05:06:37.409Z,0
2022-09-29T05:07:37.398Z,0
2022-09-29T05:08:38.050Z,0
2022-09-29T05:09:42.630Z,0
2022-09-29T05:10:37.412Z,0
2022-09-29T05:11:37.397Z,0
2022-09-29T05:12:37.420Z,0
2022-09-29T05:13:37.427Z,0
2022-09-29T05:14:37.405Z,0
2022-09-29T05:15:37.405Z,0
2022-09-29T05:17:37.434Z,0
2022-09-29T05:18:37.301Z,0
2022-09-29T05:19:40.501Z,0
2022-09-29T05:21:35.980Z,0
2022-09-29T05:22:45.381Z,0
2022-09-29T05:23:45.392Z,0
2022-09-29T05:24:45.338Z,0
2022-09-29T05:25:48.656Z,0
2022-09-29T05:26:45.355Z,0
2022-09-29T05:27:45.353Z,0
2022-09-29T05:28:45.363Z,0
2022-09-29T05:29:45.357Z,0
2022-09-29T05:30:48.425Z,0
2022-09-29T05:31:45.952Z,0
2022-09-29T05:32:45.385Z,0
2022-09-29T05:33:45.398Z,0
2022-09-29T05:34:45.399Z,0
2022-09-29T05:35:45.371Z,0
2022-09-29T05:36:48.201Z,0
2022-09-29T05:37:45.392Z,0
2022-09-29T05:38:45.425Z,0
2022-09-29T05:39:45.226Z,0
2022-09-29T05:40:45.693Z,0
2022-09-29T05:41:48.256Z,0
2022-09-29T05:42:45.379Z,0
2022-09-29T05:43:45.474Z,0
2022-09-29T05:44:45.368Z,5
2022-09-29T05:45:45.729Z,5
2022-09-29T05:46:45.381Z,5
2022-09-29T05:47:48.441Z,5
2022-09-29T05:48:45.256Z,5
2022-09-29T05:49:45.414Z,5
2022-09-29T05:50:45.408Z,5
2022-09-29T05:51:45.391Z,5
2022-09-29T05:52:48.476Z,5
2022-09-29T05:53:45.457Z,5
2022-09-29T05:54:45.423Z,5
2022-09-29T05:55:45.400Z,5
2022-09-29T05:56:51.233Z,5
2022-09-29T05:57:45.387Z,5
2022-09-29T05:58:48.167Z,5
2022-09-29T05:59:45.393Z,5
2022-09-29T06:00:45.487Z,5
2022-09-29T06:01:45.897Z,10
2022-09-29T06:02:45.768Z,10
2022-09-29T06:03:48.486Z,10
2022-09-29T06:04:52.944Z,10
2022-09-29T06:05:45.241Z,10
2022-09-29T06:06:45.163Z,10
2022-09-29T06:07:45.257Z,15
2022-09-29T06:08:45.261Z,15
2022-09-29T06:09:48.004Z,15
2022-09-29T06:10:45.459Z,15
2022-09-29T06:11:45.404Z,15
2022-09-29T06:12:45.243Z,20
2022-09-29T06:13:45.449Z,20
2022-09-29T06:14:48.386Z,15
2022-09-29T06:15:45.435Z,20
2022-09-29T06:16:45.938Z,20
2022-09-29T06:17:45.438Z,20
2022-09-29T06:18:45.449Z,35
2022-09-29T06:19:50.788Z,35
2022-09-29T06:20:48.315Z,50
2022-09-29T06:21:45.431Z,55
2022-09-29T06:22:45.462Z,50
2022-09-29T06:23:45.458Z,50
2022-09-29T06:24:45.443Z,50
2022-09-29T06:25:48.369Z,50
2022-09-29T06:26:45.456Z,25
2022-09-29T06:27:45.603Z,10
2022-09-29T06:28:45.484Z,10
2022-09-29T06:29:45.498Z,10
2022-09-29T06:30:49.120Z,10
2022-09-29T06:31:48.860Z,10
2022-09-29T06:32:45.466Z,10
2022-09-29T06:33:45.461Z,15
2022-09-29T06:34:45.448Z,20
2022-09-29T06:35:45.491Z,30
2022-09-29T06:36:48.224Z,45
2022-09-29T06:37:45.461Z,50
2022-09-29T06:38:45.561Z,50
2022-09-29T06:39:45.457Z,50
2022-09-29T06:40:45.889Z,50
2022-09-29T06:41:48.562Z,50
2022-09-29T06:42:45.476Z,60
2022-09-29T06:43:45.474Z,45
2022-09-29T06:44:46.516Z,50
2022-09-29T06:45:45.754Z,35
2022-09-29T06:46:45.459Z,35
2022-09-29T06:47:48.221Z,40
2022-09-29T06:48:45.561Z,25
2022-09-29T06:50:08.978Z,40
2022-09-29T06:50:45.463Z,55
2022-09-29T06:51:54.866Z,65
2022-09-29T06:53:07.003Z,40
2022-09-29T06:53:50.833Z,40
2022-09-29T06:54:45.500Z,55
2022-09-29T06:55:45.507Z,45
2022-09-29T06:56:45.483Z,35
2022-09-29T06:57:45.547Z,35
2022-09-29T06:58:48.555Z,40
2022-09-29T06:59:45.499Z,50
2022-09-29T07:00:50.584Z,35
2022-09-29T07:01:45.767Z,25
2022-09-29T07:02:45.538Z,20
2022-09-29T07:03:49.063Z,15
2022-09-29T07:04:45.554Z,10
2022-09-29T07:06:21.326Z,10
2022-09-29T07:06:45.511Z,5
2022-09-29T07:07:48.846Z,5
2022-09-29T07:08:45.514Z,5
2022-09-29T07:09:48.339Z,5
2022-09-29T07:10:45.534Z,10
2022-09-29T07:11:45.519Z,10
2022-09-29T07:12:45.526Z,10
2022-09-29T07:13:45.731Z,10
2022-09-29T07:14:50.413Z,10
2022-09-29T07:15:45.545Z,10
2022-09-29T07:16:49.004Z,10
2022-09-29T07:17:45.515Z,10
2022-09-29T07:18:45.561Z,10
2022-09-29T07:19:45.939Z,10
2022-09-29T07:20:45.547Z,10
2022-09-29T07:21:45.524Z,10
2022-09-29T07:22:45.526Z,15
2022-09-29T07:23:45.593Z,15
2022-09-29T07:24:45.511Z,15
2022-09-29T07:26:00.235Z,15
2022-09-29T07:26:45.538Z,15
2022-09-29T07:27:45.537Z,15
2022-09-29T07:28:45.534Z,15
2022-09-29T07:29:58.829Z,15
2022-09-29T07:30:49.696Z,15
2022-09-29T07:32:02.330Z,15
2022-09-29T07:33:02.747Z,15
2022-09-29T07:33:49.094Z,15
2022-09-29T07:34:48.516Z,15
2022-09-29T07:35:49.196Z,15
2022-09-29T07:36:45.709Z,15
2022-09-29T07:37:45.542Z,20
2022-09-29T07:38:45.599Z,20
2022-09-29T07:39:45.595Z,15
2022-09-29T07:40:45.999Z,15
2022-09-29T07:41:48.575Z,15
2022-09-29T07:42:45.548Z,15
2022-09-29T07:43:45.580Z,15
2022-09-29T07:44:47.955Z,20
2022-09-29T07:45:46.367Z,20
2022-09-29T07:46:45.582Z,20
2022-09-29T07:47:45.580Z,20
2022-09-29T07:48:45.577Z,20
2022-09-29T07:49:45.561Z,20
2022-09-29T07:50:45.554Z,20
2022-09-29T07:52:51.603Z,20
2022-09-29T07:53:45.589Z,20
2022-09-29T07:54:45.587Z,20
2022-09-29T07:55:46.558Z,20
2022-09-29T07:57:48.579Z,20
2022-09-29T07:58:45.595Z,25
2022-09-29T07:59:57.682Z,30
2022-09-29T08:00:45.843Z,30
2022-09-29T08:01:45.725Z,30
2022-09-29T08:02:46.105Z,35
2022-09-29T08:03:48.349Z,40
2022-09-29T08:04:46.632Z,40
2022-09-29T08:05:45.597Z,40
2022-09-29T08:06:48.436Z,35
2022-09-29T08:07:45.652Z,40
2022-09-29T08:09:08.044Z,35
2022-09-29T08:09:53.206Z,40
2022-09-29T08:11:03.829Z,50
2022-09-29T08:11:45.591Z,75
2022-09-29T08:12:53.165Z,55
2022-09-29T08:13:45.612Z,50
2022-09-29T08:14:52.736Z,60
2022-09-29T08:15:45.434Z,55
2022-09-29T08:16:46.024Z,55
2022-09-29T08:17:45.506Z,60
2022-09-29T08:18:45.609Z,65
2022-09-29T08:19:48.482Z,55
2022-09-29T08:20:45.603Z,55
2022-09-29T08:21:45.692Z,55
2022-09-29T08:22:45.597Z,70
2022-09-29T08:23:45.604Z,70
2022-09-29T08:24:45.629Z,45
2022-09-29T08:26:03.119Z,40
2022-09-29T08:26:52.849Z,50
2022-09-29T08:28:02.414Z,40
2022-09-29T08:28:45.763Z,45
2022-09-29T08:29:55.326Z,65
2022-09-29T08:30:48.751Z,70
2022-09-29T08:31:46.411Z,80
2022-09-29T08:32:45.626Z,75
2022-09-29T08:33:45.684Z,60
2022-09-29T08:34:45.640Z,90
2022-09-29T08:35:45.637Z,65
2022-09-29T08:36:48.444Z,60
2022-09-29T08:37:45.641Z,75
2022-09-29T08:38:45.701Z,55
2022-09-29T08:39:45.675Z,60
2022-09-29T08:40:46.089Z,55
2022-09-29T08:41:48.681Z,40
2022-09-29T08:43:00.393Z,40
2022-09-29T08:43:45.722Z,35
2022-09-29T08:44:49.940Z,30
2022-09-29T08:46:03.540Z,30
2022-09-29T08:46:46.057Z,30
2022-09-29T08:47:57.833Z,30
2022-09-29T08:49:04.875Z,30
2022-09-29T08:49:45.751Z,30
2022-09-29T08:50:45.659Z,40
2022-09-29T08:51:51.403Z,40
2022-09-29T08:52:59.765Z,45
2022-09-29T08:54:03.478Z,35
2022-09-29T08:54:55.097Z,35
2022-09-29T08:55:45.679Z,35
2022-09-29T08:56:45.670Z,45
2022-09-29T08:57:48.422Z,55
2022-09-29T08:58:48.821Z,55
2022-09-29T08:59:45.718Z,55
2022-09-29T09:00:46.099Z,70
2022-09-29T09:01:46.071Z,100
2022-09-29T09:02:46.202Z,80
2022-09-29T09:03:48.893Z,80
2022-09-29T09:04:45.731Z,85
2022-09-29T09:05:45.731Z,80
2022-09-29T09:06:45.705Z,65
2022-09-29T09:07:45.692Z,75
2022-09-29T09:08:48.996Z,75
2022-09-29T09:09:45.723Z,75
2022-09-29T09:10:45.692Z,95
2022-09-29T09:11:45.713Z,90
2022-09-29T09:12:45.694Z,95
2022-09-29T09:13:45.696Z,100
2022-09-29T09:14:48.674Z,85
2022-09-29T09:15:45.545Z,80
2022-09-29T09:16:46.135Z,75
2022-09-29T09:17:45.710Z,65
2022-09-29T09:18:45.771Z,100
2022-09-29T09:19:47.162Z,125
2022-09-29T09:20:46.030Z,115
2022-09-29T09:21:45.739Z,85
2022-09-29T09:22:45.755Z,65
2022-09-29T09:23:45.727Z,50
2022-09-29T09:24:45.858Z,45
2022-09-29T09:25:48.516Z,55
2022-09-29T09:26:45.734Z,70
2022-09-29T09:27:45.718Z,65
2022-09-29T09:28:45.720Z,70
2022-09-29T09:29:47.105Z,55
2022-09-29T09:30:49.483Z,55
2022-09-29T09:31:45.727Z,50
2022-09-29T09:32:45.722Z,40
2022-09-29T09:33:54.278Z,40
2022-09-29T09:34:56.604Z,55
2022-09-29T09:36:03.891Z,35
2022-09-29T09:37:02.756Z,40
2022-09-29T09:37:45.753Z,40
2022-09-29T09:38:45.739Z,35
2022-09-29T09:39:45.742Z,40
2022-09-29T09:40:45.779Z,35
2022-09-29T09:41:48.778Z,30
2022-09-29T09:42:45.785Z,35
2022-09-29T09:43:45.759Z,40
2022-09-29T09:44:45.741Z,55
2022-09-29T09:45:46.233Z,45
2022-09-29T09:46:46.011Z,50
2022-09-29T09:47:45.759Z,40
2022-09-29T09:48:45.782Z,30
2022-09-29T09:49:45.775Z,25
2022-09-29T09:50:45.814Z,30
2022-09-29T09:51:47.061Z,25
2022-09-29T09:52:45.765Z,25
2022-09-29T09:53:45.807Z,25
2022-09-29T09:54:45.785Z,25
2022-09-29T09:55:45.811Z,45
2022-09-29T09:56:45.807Z,45
2022-09-29T09:57:45.829Z,45
2022-09-29T09:58:45.782Z,40
2022-09-29T09:59:45.788Z,40
2022-09-29T10:00:48.741Z,40
2022-09-29T10:01:46.305Z,40
2022-09-29T10:02:48.648Z,40
2022-09-29T10:03:45.776Z,45
2022-09-29T10:04:45.813Z,55
2022-09-29T10:05:45.875Z,55
2022-09-29T10:06:45.903Z,50
2022-09-29T10:07:45.952Z,55
2022-09-29T10:08:49.874Z,45
2022-09-29T10:09:46.190Z,55
2022-09-29T10:11:08.804Z,55
2022-09-29T10:11:45.809Z,70
2022-09-29T10:12:45.792Z,55
2022-09-29T10:13:45.806Z,40
2022-09-29T10:14:45.808Z,65
2022-09-29T10:15:46.147Z,55
2022-09-29T10:16:46.519Z,75
2022-09-29T10:17:45.794Z,70
2022-09-29T10:18:45.897Z,40
2022-09-29T10:19:48.715Z,35
2022-09-29T10:20:45.856Z,45
2022-09-29T10:21:45.816Z,65
2022-09-29T10:22:48.389Z,60
2022-09-29T10:23:45.855Z,50
2022-09-29T10:24:48.664Z,40
2022-09-29T10:25:45.886Z,35
2022-09-29T10:26:45.837Z,35
2022-09-29T10:27:45.812Z,30
2022-09-29T10:28:45.719Z,30
2022-09-29T10:29:45.842Z,30
2022-09-29T10:30:49.257Z,30
2022-09-29T10:31:45.839Z,30
2022-09-29T10:32:45.860Z,30
2022-09-29T10:33:45.834Z,30
2022-09-29T10:34:45.942Z,30
2022-09-29T10:35:48.952Z,30
2022-09-29T10:36:45.830Z,30
2022-09-29T10:37:45.866Z,30
2022-09-29T10:38:45.842Z,35
2022-09-29T10:39:45.909Z,40
2022-09-29T10:40:45.904Z,35
2022-09-29T10:41:48.922Z,35
2022-09-29T10:42:45.865Z,35
2022-09-29T10:44:45.861Z,35
2022-09-29T10:45:46.272Z,35
2022-09-29T10:46:49.382Z,35
2022-09-29T10:47:46.009Z,35
2022-09-29T10:48:45.862Z,40
2022-09-29T10:49:45.856Z,45
2022-09-29T10:50:47.009Z,40
2022-09-29T10:51:46.277Z,55
2022-09-29T10:52:48.971Z,80
2022-09-29T10:53:45.878Z,70
2022-09-29T10:54:45.877Z,65
2022-09-29T10:55:45.990Z,65
2022-09-29T10:56:45.874Z,40
2022-09-29T10:57:49.133Z,35
2022-09-29T10:59:10.879Z,30
2022-09-29T10:59:45.881Z,30
2022-09-29T11:00:45.937Z,25
2022-09-29T11:01:46.056Z,25
2022-09-29T11:02:46.238Z,30
2022-09-29T11:03:49.044Z,30
2022-09-29T11:04:45.912Z,30
2022-09-29T11:05:45.958Z,30
2022-09-29T11:06:51.306Z,25
2022-09-29T11:07:45.892Z,25
2022-09-29T11:08:49.005Z,25
2022-09-29T11:09:46.230Z,25
2022-09-29T11:10:45.951Z,25
2022-09-29T11:11:45.922Z,25
2022-09-29T11:12:46.003Z,25
2022-09-29T11:13:46.087Z,25
2022-09-29T11:14:48.824Z,30
2022-09-29T11:15:45.925Z,30
2022-09-29T11:16:46.146Z,35
2022-09-29T11:17:45.939Z,40
2022-09-29T11:18:45.914Z,35
2022-09-29T11:19:49.169Z,35
2022-09-29T11:20:45.944Z,35
2022-09-29T11:21:45.919Z,40
2022-09-29T11:22:45.994Z,40
2022-09-29T11:23:45.922Z,35
2022-09-29T11:24:46.003Z,35
2022-09-29T11:25:49.019Z,35
2022-09-29T11:26:50.844Z,35
2022-09-29T11:27:45.925Z,35
2022-09-29T11:28:45.942Z,35
2022-09-29T11:29:45.969Z,40
2022-09-29T11:30:48.993Z,35
2022-09-29T11:31:45.983Z,35
2022-09-29T11:32:45.974Z,35
2022-09-29T11:33:46.049Z,35
2022-09-29T11:34:45.942Z,35
2022-09-29T11:35:47.272Z,35
2022-09-29T11:36:45.969Z,35
2022-09-29T11:37:48.958Z,35
2022-09-29T11:38:45.940Z,30
2022-09-29T11:39:45.941Z,30
2022-09-29T11:40:45.959Z,35
2022-09-29T11:41:48.960Z,35
2022-09-29T11:42:45.962Z,40
2022-09-29T11:43:46.056Z,35
2022-09-29T11:44:45.962Z,30
2022-09-29T11:45:46.404Z,40
2022-09-29T11:46:48.743Z,25
2022-09-29T11:47:45.953Z,25
2022-09-29T11:48:45.958Z,25
2022-09-29T11:49:45.960Z,20
2022-09-29T11:50:46.002Z,20
2022-09-29T11:51:45.964Z,20
2022-09-29T11:52:49.136Z,20
2022-09-29T11:53:46.076Z,20
2022-09-29T11:54:45.993Z,20
2022-09-29T11:55:46.075Z,20
2022-09-29T11:56:45.989Z,20
2022-09-29T11:57:49.121Z,20
2022-09-29T11:58:45.997Z,20
2022-09-29T11:59:46.029Z,20
2022-09-29T12:00:46.000Z,20
2022-09-29T12:01:46.590Z,20
2022-09-29T12:02:46.567Z,20
2022-09-29T12:03:48.788Z,20
2022-09-29T12:04:45.990Z,20
2022-09-29T12:05:46.057Z,20
2022-09-29T12:06:46.007Z,20
2022-09-29T12:07:45.995Z,20
2022-09-29T12:08:49.243Z,20
2022-09-29T12:09:46.321Z,20
2022-09-29T12:10:46.021Z,20
2022-09-29T12:12:29.935Z,20
2022-09-29T12:12:46.382Z,20
2022-09-29T12:13:46.042Z,20
2022-09-29T12:14:50.306Z,20
2022-09-29T12:15:50.015Z,20
2022-09-29T12:16:46.460Z,20
2022-09-29T12:17:46.045Z,20
2022-09-29T12:18:46.026Z,20
2022-09-29T12:19:46.020Z,20
2022-09-29T12:20:46.067Z,20
2022-09-29T12:21:46.052Z,20
2022-09-29T12:22:51.643Z,25
2022-09-29T12:23:46.024Z,20
2022-09-29T12:24:46.176Z,20
2022-09-29T12:25:46.044Z,20
2022-09-29T12:26:46.027Z,20
2022-09-29T12:27:46.044Z,20
2022-09-29T12:28:46.035Z,20
2022-09-29T12:29:46.065Z,20
2022-09-29T12:30:46.385Z,20
2022-09-29T12:31:46.048Z,20
2022-09-29T12:32:46.028Z,20
2022-09-29T12:33:46.072Z,20
2022-09-29T12:34:46.039Z,20
2022-09-29T12:35:47.507Z,20
2022-09-29T12:36:46.240Z,20
2022-09-29T12:37:46.073Z,20
2022-09-29T12:38:46.081Z,20
2022-09-29T12:39:46.058Z,20
2022-09-29T12:40:46.154Z,20
2022-09-29T12:41:46.088Z,20
2022-09-29T12:42:46.101Z,20
2022-09-29T12:43:46.066Z,20
2022-09-29T12:44:46.082Z,20
2022-09-29T12:45:46.219Z,20
2022-09-29T12:46:49.074Z,20
2022-09-29T12:47:46.100Z,20
2022-09-29T12:48:46.087Z,20
2022-09-29T12:49:46.128Z,20
2022-09-29T12:50:46.666Z,20
2022-09-29T12:51:49.143Z,20
2022-09-29T12:52:46.085Z,20
2022-09-29T12:53:46.121Z,20
2022-09-29T12:54:46.075Z,20
2022-09-29T12:55:46.090Z,20
2022-09-29T12:56:46.283Z,20
2022-09-29T12:57:48.839Z,20
2022-09-29T12:58:46.112Z,20
2022-09-29T12:59:46.096Z,20
2022-09-29T13:00:46.112Z,15
2022-09-29T13:01:46.698Z,20
2022-09-29T13:02:49.307Z,20
2022-09-29T13:03:46.093Z,20
2022-09-29T13:04:46.096Z,20
2022-09-29T13:05:46.136Z,20
2022-09-29T13:06:46.133Z,15
2022-09-29T13:07:46.089Z,15
2022-09-29T13:08:48.951Z,15
2022-09-29T13:09:46.361Z,20
2022-09-29T13:10:46.102Z,20
2022-09-29T13:11:46.147Z,20
2022-09-29T13:12:49.286Z,20
2022-09-29T13:13:48.986Z,20
2022-09-29T13:14:46.171Z,20
2022-09-29T13:15:52.172Z,20
2022-09-29T13:16:46.243Z,20
2022-09-29T13:17:51.487Z,15
2022-09-29T13:19:39.633Z,15
2022-09-29T13:20:14.270Z,15
2022-09-29T13:20:58.362Z,10
2022-09-29T13:21:57.458Z,10
2022-09-29T13:22:57.425Z,10
2022-09-29T13:23:57.533Z,10
2022-09-29T13:25:01.461Z,10
2022-09-29T13:26:00.200Z,10
2022-09-29T13:26:57.465Z,10
2022-09-29T13:27:57.513Z,10
2022-09-29T13:28:57.491Z,10
2022-09-29T13:29:57.461Z,10
2022-09-29T13:30:58.036Z,10
2022-09-29T13:32:00.598Z,5
2022-09-29T13:32:57.475Z,5
2022-09-29T13:33:57.635Z,5
2022-09-29T13:34:57.442Z,5
2022-09-29T13:35:57.463Z,5
2022-09-29T13:37:00.598Z,5
2022-09-29T13:37:57.457Z,5
2022-09-29T13:38:57.453Z,5
2022-09-29T13:40:04.587Z,5
2022-09-29T13:40:57.480Z,5
2022-09-29T13:41:57.481Z,5
2022-09-29T13:43:00.304Z,5
2022-09-29T13:43:57.635Z,5
2022-09-29T13:44:57.473Z,5
2022-09-29T13:45:57.761Z,5
2022-09-29T13:46:57.487Z,5
2022-09-29T13:48:00.654Z,5
2022-09-29T13:48:57.485Z,5
2022-09-29T13:50:02.462Z,5
2022-09-29T13:51:00.678Z,5
2022-09-29T13:51:57.510Z,5
2022-09-29T13:52:57.516Z,5
2022-09-29T13:54:00.504Z,5
2022-09-29T13:54:57.479Z,5
2022-09-29T13:56:00.529Z,5
2022-09-29T13:56:57.512Z,5
2022-09-29T13:57:57.593Z,5
2022-09-29T13:59:00.483Z,5
2022-09-29T13:59:57.547Z,5
2022-09-29T14:00:57.503Z,5
2022-09-29T14:01:57.703Z,5
2022-09-29T14:02:57.776Z,5
2022-09-29T14:04:00.527Z,5
2022-09-29T14:04:57.509Z,5
2022-09-29T14:05:57.519Z,5
2022-09-29T14:06:57.354Z,5
2022-09-29T14:07:57.891Z,5
2022-09-29T14:08:58.016Z,5
2022-09-29T14:10:57.637Z,5
2022-09-29T14:11:57.548Z,5
2022-09-29T14:13:02.050Z,5
2022-09-29T14:13:57.522Z,5
2022-09-29T14:15:00.381Z,5
2022-09-29T14:15:57.984Z,5
2022-09-29T14:16:57.559Z,5
2022-09-29T14:17:57.546Z,5
2022-09-29T14:18:57.545Z,5
2022-09-29T14:19:57.643Z,5
2022-09-29T14:20:57.511Z,5
2022-09-29T14:21:57.608Z,5
2022-09-29T14:22:57.794Z,5
2022-09-29T14:23:57.539Z,5
2022-09-29T14:24:57.573Z,5
2022-09-29T14:26:00.307Z,5
2022-09-29T14:26:57.615Z,5
2022-09-29T14:27:57.522Z,5
2022-09-29T14:28:57.548Z,5
2022-09-29T14:29:57.550Z,5
2022-09-29T14:30:58.204Z,5
2022-09-29T14:31:57.617Z,5
2022-09-29T14:32:57.728Z,5
2022-09-29T14:34:02.739Z,5
2022-09-29T14:34:57.437Z,5
2022-09-29T14:35:57.743Z,5
2022-09-29T14:37:00.617Z,5
2022-09-29T14:37:57.650Z,5